createdAt,value
2019-01-08T00:01:14.617Z,98750.45
2019-01-08T00:03:49.380Z,98740.21
2019-01-08T00:06:20.682Z,98730.84
2019-01-08T00:08:51.868Z,98724.30
2019-01-08T00:11:23.063Z,98722.13
2019-01-08T00:13:54.351Z,98720.53
2019-01-08T00:16:26.039Z,98709.48
2019-01-08T00:18:58.397Z,98699.11
2019-01-08T00:21:29.911Z,98699.23
2019-01-08T00:24:00.927Z,98685.73
2019-01-08T00:26:32.274Z,98677.13
2019-01-08T00:29:04.622Z,98680.32
2019-01-08T00:31:35.783Z,98666.22
2019-01-08T00:34:07.514Z,98669.19
2019-01-08T00:36:38.998Z,98659.94
2019-01-08T00:39:10.206Z,98660.09
2019-01-08T00:41:41.366Z,98651.59
2019-01-08T00:44:12.458Z,98644.94
2019-01-08T00:46:43.672Z,98647.51
2019-01-08T00:49:14.790Z,98639.06
2019-01-08T00:51:46.155Z,98629.53
2019-01-08T00:54:17.147Z,98627.53
2019-01-08T00:56:48.193Z,98619.80
2019-01-08T00:59:19.313Z,98618.56
2019-01-08T01:01:50.799Z,98611.11
2019-01-08T01:04:22.358Z,98605.47
2019-01-08T01:06:53.696Z,98596.65
2019-01-08T01:09:24.956Z,98592.69
2019-01-08T01:11:56.216Z,98580.79
2019-01-08T01:14:27.973Z,98577.70
2019-01-08T01:16:59.431Z,98568.65
2019-01-08T01:19:33.151Z,98571.77
2019-01-08T01:22:05.702Z,98565.59
2019-01-08T01:24:38.490Z,98557.14
2019-01-08T01:27:09.722Z,98558.34
2019-01-08T01:29:43.119Z,98552.56
2019-01-08T01:32:14.288Z,98543.03
2019-01-08T01:34:45.785Z,98545.87
2019-01-08T01:37:16.971Z,98532.97
2019-01-08T01:39:48.149Z,98520.59
2019-01-08T01:42:21.173Z,98522.84
2019-01-08T01:44:54.160Z,98509.97
2019-01-08T01:47:25.242Z,98503.01
2019-01-08T01:49:56.452Z,98492.87
2019-01-08T01:52:27.553Z,98489.72
2019-01-08T01:54:58.790Z,98485.44
2019-01-08T01:57:30.607Z,98482.79
2019-01-08T02:00:01.747Z,98483.56
2019-01-08T02:02:33.519Z,98478.92
2019-01-08T02:05:04.846Z,98469.16
2019-01-08T02:07:36.488Z,98464.86
2019-01-08T02:10:08.246Z,98458.73
2019-01-08T02:12:39.764Z,98461.58
2019-01-08T02:15:10.773Z,98449.39
2019-01-08T02:17:43.433Z,98444.30
2019-01-08T02:20:14.685Z,98438.87
2019-01-08T02:22:45.810Z,98436.26
2019-01-08T02:25:17.058Z,98428.39
2019-01-08T02:27:48.612Z,98421.97
2019-01-08T02:30:19.928Z,98417.52
2019-01-08T02:32:52.143Z,98411.14
2019-01-08T02:35:23.559Z,98406.88
2019-01-08T02:37:55.257Z,98396.77
2019-01-08T02:40:27.621Z,98391.72
2019-01-08T02:42:58.992Z,98383.45
2019-01-08T02:45:31.587Z,98376.91
2019-01-08T02:48:03.248Z,98362.06
2019-01-08T02:50:34.682Z,98359.90
2019-01-08T02:53:05.861Z,98354.31
2019-01-08T02:55:37.031Z,98348.89
2019-01-08T02:58:08.244Z,98345.73
2019-01-08T03:00:39.516Z,98343.06
2019-01-08T03:03:10.950Z,98333.43
2019-01-08T03:05:42.774Z,98333.56
2019-01-08T03:08:15.800Z,98330.36
2019-01-08T03:10:47.356Z,98320.10
2019-01-08T03:13:18.699Z,98319.19
2019-01-08T03:15:50.143Z,98318.23
2019-01-08T03:18:22.931Z,98300.58
2019-01-08T03:20:54.344Z,98298.33
2019-01-08T03:23:25.701Z,98284.15
2019-01-08T03:25:57.387Z,98280.06
2019-01-08T03:28:28.733Z,98274.30
2019-01-08T03:30:59.900Z,98266.70
2019-01-08T03:33:33.381Z,98266.05
2019-01-08T03:36:04.899Z,98259.30
2019-01-08T03:38:36.087Z,98249.56
2019-01-08T03:41:07.352Z,98243.66
2019-01-08T03:43:38.870Z,98230.46
2019-01-08T03:46:11.219Z,98231.79
2019-01-08T03:48:42.400Z,98218.25
2019-01-08T03:51:13.602Z,98207.66
2019-01-08T03:53:45.188Z,98205.33
2019-01-08T03:56:16.675Z,98200.07
2019-01-08T03:58:48.875Z,98205.89
2019-01-08T04:01:20.246Z,98193.31
2019-01-08T04:03:52.453Z,98184.74
2019-01-08T04:06:24.038Z,98176.98
2019-01-08T04:08:57.750Z,98169.03
2019-01-08T04:11:29.321Z,98160.60
2019-01-08T04:14:00.667Z,98160.11
2019-01-08T04:16:31.909Z,98137.15
2019-01-08T04:19:03.086Z,98128.86
2019-01-08T04:21:34.552Z,98132.00
2019-01-08T04:24:07.934Z,98126.20
2019-01-08T04:26:39.625Z,98110.78
2019-01-08T04:29:10.766Z,98094.27
2019-01-08T04:31:41.925Z,98094.27
2019-01-08T04:34:13.649Z,98089.48
2019-01-08T04:36:44.910Z,98100.22
2019-01-08T04:39:16.583Z,98092.53
2019-01-08T04:41:48.056Z,98082.16
2019-01-08T04:44:20.012Z,98076.38
2019-01-08T04:46:52.616Z,98071.57
2019-01-08T04:49:24.190Z,98066.45
2019-01-08T04:51:55.392Z,98064.77
2019-01-08T04:54:27.045Z,98050.87
2019-01-08T04:56:58.269Z,98051.03
2019-01-08T04:59:30.852Z,98032.98
2019-01-08T05:02:02.089Z,98016.26
2019-01-08T05:04:33.500Z,98013.09
2019-01-08T05:07:04.952Z,98003.84
2019-01-08T05:09:36.355Z,98002.19
2019-01-08T05:12:07.649Z,97985.16
2019-01-08T05:14:41.329Z,97981.72
2019-01-08T05:17:12.809Z,97980.23
2019-01-08T05:19:45.136Z,97975.45
2019-01-08T05:22:18.131Z,97970.00
2019-01-08T05:24:49.572Z,97958.89
2019-01-08T05:27:20.876Z,97956.25
2019-01-08T05:29:52.196Z,97947.33
2019-01-08T05:32:24.191Z,97942.53
2019-01-08T05:34:55.702Z,97931.94
2019-01-08T05:37:27.525Z,97926.46
2019-01-08T05:39:59.087Z,97928.14
2019-01-08T05:42:30.224Z,97915.70
2019-01-08T05:45:01.453Z,97917.53
2019-01-08T05:47:32.654Z,97911.91
2019-01-08T05:50:04.018Z,97903.29
2019-01-08T05:52:35.403Z,97897.99
2019-01-08T05:55:06.700Z,97889.72
2019-01-08T05:57:38.052Z,97883.11
2019-01-08T06:00:16.396Z,97879.94
2019-01-08T06:02:42.354Z,97876.98
2019-01-08T06:05:13.570Z,97869.38
2019-01-08T06:07:44.902Z,97868.52
2019-01-08T06:10:16.722Z,97856.30
2019-01-08T06:12:47.957Z,97856.78
2019-01-08T06:15:20.094Z,97858.94
2019-01-08T06:17:51.631Z,97843.72
2019-01-08T06:20:22.799Z,97835.59
2019-01-08T06:22:53.863Z,97825.02
2019-01-08T06:25:25.409Z,97820.38
2019-01-08T06:27:56.506Z,97809.96
2019-01-08T06:30:27.905Z,97807.66
2019-01-08T06:33:00.418Z,97800.53
2019-01-08T06:35:33.767Z,97796.41
2019-01-08T06:38:05.899Z,97786.47
2019-01-08T06:40:37.031Z,97775.72
2019-01-08T06:43:08.187Z,97776.55
2019-01-08T06:45:39.316Z,97770.73
2019-01-08T06:48:12.940Z,97770.39
2019-01-08T06:50:44.690Z,97760.79
2019-01-08T06:53:15.865Z,97756.48
2019-01-08T06:55:47.241Z,97744.41
2019-01-08T06:58:18.663Z,97744.41
2019-01-08T07:00:50.037Z,97735.44
2019-01-08T07:03:21.277Z,97727.46
2019-01-08T07:05:52.774Z,97720.34
2019-01-08T07:08:24.108Z,97727.30
2019-01-08T07:10:55.424Z,97723.44
2019-01-08T07:13:26.686Z,97723.39
2019-01-08T07:15:59.176Z,97719.21
2019-01-08T07:18:30.434Z,97710.76
2019-01-08T07:21:01.699Z,97706.73
2019-01-08T07:23:33.186Z,97696.70
2019-01-08T07:26:04.421Z,97689.88
2019-01-08T07:28:35.668Z,97683.18
2019-01-08T07:31:06.834Z,97684.63
2019-01-08T07:33:38.309Z,97681.82
2019-01-08T07:36:09.428Z,97674.31
2019-01-08T07:38:40.635Z,97665.36
2019-01-08T07:41:11.787Z,97669.05
2019-01-08T07:43:43.612Z,97657.76
2019-01-08T07:46:14.980Z,97651.61
2019-01-08T07:48:46.570Z,97646.11
2019-01-08T07:51:17.972Z,97642.25
2019-01-08T07:53:49.818Z,97646.28
2019-01-08T07:56:21.047Z,97633.16
2019-01-08T07:58:52.093Z,97635.38
2019-01-08T08:01:23.213Z,97632.50
2019-01-08T08:03:54.431Z,97629.42
2019-01-08T08:06:25.604Z,97624.06
2019-01-08T08:08:56.877Z,97617.34
2019-01-08T08:11:29.053Z,97617.38
2019-01-08T08:14:00.478Z,97612.20
2019-01-08T08:16:33.844Z,97607.32
2019-01-08T08:19:05.209Z,97610.50
2019-01-08T08:21:37.823Z,97607.74
2019-01-08T08:24:08.997Z,97602.69
2019-01-08T08:26:40.134Z,97601.89
2019-01-08T08:29:11.305Z,97595.79
2019-01-08T08:31:42.535Z,97592.64
2019-01-08T08:34:13.692Z,97594.36
2019-01-08T08:36:46.489Z,97596.73
2019-01-08T08:39:17.553Z,97581.95
2019-01-08T08:41:51.455Z,97581.96
2019-01-08T08:44:22.482Z,97569.83
2019-01-08T08:46:53.779Z,97576.23
2019-01-08T08:49:26.134Z,97571.91
2019-01-08T08:51:57.388Z,97565.34
2019-01-08T08:54:28.585Z,97558.81
2019-01-08T08:56:59.996Z,97551.78
2019-01-08T08:59:32.255Z,97556.86
2019-01-08T09:02:03.944Z,97551.34
2019-01-08T09:04:35.239Z,97548.75
2019-01-08T09:07:06.384Z,97550.20
2019-01-08T09:09:38.038Z,97544.06
2019-01-08T09:12:09.309Z,97539.42
2019-01-08T09:14:42.130Z,97535.11
2019-01-08T09:17:14.339Z,97520.16
2019-01-08T09:19:45.455Z,97518.27
2019-01-08T09:22:18.551Z,97507.17
2019-01-08T09:24:49.910Z,97510.66
2019-01-08T09:27:21.182Z,97502.40
2019-01-08T09:29:52.534Z,97500.83
2019-01-08T09:32:24.149Z,97491.84
2019-01-08T09:34:55.274Z,97490.31
2019-01-08T09:37:26.351Z,97488.98
2019-01-08T09:39:59.051Z,97474.03
2019-01-08T09:42:30.308Z,97472.67
2019-01-08T09:45:01.373Z,97467.80
2019-01-08T09:47:32.522Z,97468.12
2019-01-08T09:50:03.980Z,97464.63
2019-01-08T09:52:35.421Z,97454.05
2019-01-08T09:55:08.085Z,97443.75
2019-01-08T09:57:40.386Z,97443.75
2019-01-08T10:00:11.593Z,97444.14
2019-01-08T10:02:42.922Z,97434.98
2019-01-08T10:05:14.057Z,97432.72
2019-01-08T10:07:45.786Z,97434.92
2019-01-08T10:10:18.487Z,97424.78
2019-01-08T10:12:49.698Z,97422.89
2019-01-08T10:15:20.867Z,97423.07
2019-01-08T10:17:52.601Z,97411.64
2019-01-08T10:20:23.665Z,97399.38
2019-01-08T10:22:55.195Z,97406.36
2019-01-08T10:25:26.294Z,97400.81
2019-01-08T10:27:57.642Z,97397.11
2019-01-08T10:30:28.805Z,97388.20
2019-01-08T10:33:00.041Z,97389.02
2019-01-08T10:35:31.279Z,97386.00
2019-01-08T10:38:03.917Z,97383.41
2019-01-08T10:40:35.579Z,97369.78
2019-01-08T10:43:06.965Z,97371.00
2019-01-08T10:45:38.851Z,97363.13
2019-01-08T10:48:10.614Z,97354.20
2019-01-08T10:50:43.357Z,97353.27
2019-01-08T10:53:14.868Z,97343.67
2019-01-08T10:55:45.921Z,97340.91
2019-01-08T10:58:17.471Z,97346.94
2019-01-08T11:00:48.769Z,97333.23
2019-01-08T11:03:20.093Z,97336.01
2019-01-08T11:05:52.961Z,97319.22
2019-01-08T11:08:24.498Z,97324.46
2019-01-08T11:10:56.056Z,97314.61
2019-01-08T11:13:27.685Z,97312.38
2019-01-08T11:15:59.308Z,97309.30
2019-01-08T11:18:30.970Z,97300.19
2019-01-08T11:21:02.105Z,97298.06
2019-01-08T11:23:33.511Z,97294.06
2019-01-08T11:26:05.674Z,97283.92
2019-01-08T11:28:38.066Z,97277.98
2019-01-08T11:31:09.326Z,97282.62
2019-01-08T11:33:40.730Z,97275.02
2019-01-08T11:36:13.388Z,97265.27
2019-01-08T11:38:44.520Z,97265.67
2019-01-08T11:41:15.787Z,97252.18
2019-01-08T11:43:47.240Z,97248.59
2019-01-08T11:46:18.578Z,97253.41
2019-01-08T11:48:51.698Z,97244.92
2019-01-08T11:51:22.936Z,97245.53
2019-01-08T11:53:54.033Z,97232.52
2019-01-08T11:56:25.075Z,97232.95
2019-01-08T11:58:56.403Z,97226.98
2019-01-08T12:01:27.599Z,97229.44
2019-01-08T12:03:59.357Z,97225.37
2019-01-08T12:06:30.396Z,97216.64
2019-01-08T12:09:01.743Z,97212.25
2019-01-08T12:11:34.430Z,97212.84
2019-01-08T12:14:06.236Z,97217.16
2019-01-08T12:16:37.521Z,97207.43
2019-01-08T12:19:09.457Z,97198.84
2019-01-08T12:21:40.935Z,97208.66
2019-01-08T12:24:12.111Z,97199.47
2019-01-08T12:26:43.437Z,97193.83
2019-01-08T12:29:15.236Z,97193.83
2019-01-08T12:31:46.768Z,97193.52
2019-01-08T12:34:17.990Z,97192.41
2019-01-08T12:36:49.296Z,97191.89
2019-01-08T12:39:20.527Z,97189.43
2019-01-08T12:41:51.812Z,97187.70
2019-01-08T12:44:24.595Z,97195.39
2019-01-08T12:46:57.478Z,97183.08
2019-01-08T12:49:28.694Z,97184.20
2019-01-08T12:52:01.906Z,97182.66
2019-01-08T12:54:33.368Z,97178.69
2019-01-08T12:57:05.110Z,97169.67
2019-01-08T12:59:36.554Z,97174.77
2019-01-08T13:02:14.630Z,97173.56
2019-01-08T13:04:40.790Z,97172.42
2019-01-08T13:07:12.003Z,97164.54
2019-01-08T13:09:43.098Z,97161.67
2019-01-08T13:12:14.862Z,97161.69
2019-01-08T13:14:46.362Z,97169.17
2019-01-08T13:17:17.695Z,97160.98
2019-01-08T13:19:48.960Z,97157.40
2019-01-08T13:22:19.998Z,97158.53
2019-01-08T13:24:51.215Z,97157.91
2019-01-08T13:27:22.228Z,97155.55
2019-01-08T13:29:54.778Z,97155.14
2019-01-08T13:32:26.124Z,97151.96
2019-01-08T13:34:59.697Z,97151.17
2019-01-08T13:37:30.734Z,97153.11
2019-01-08T13:40:01.830Z,97152.28
2019-01-08T13:42:33.457Z,97149.84
2019-01-08T13:45:06.997Z,97146.12
2019-01-08T13:47:38.030Z,97138.47
2019-01-08T13:50:10.169Z,97141.13
2019-01-08T13:52:41.734Z,97136.09
2019-01-08T13:55:13.119Z,97137.14
2019-01-08T13:57:44.479Z,97131.72
2019-01-08T14:00:16.715Z,97130.17
2019-01-08T14:02:48.021Z,97122.70
2019-01-08T14:05:19.504Z,97115.03
2019-01-08T14:07:50.836Z,97103.66
2019-01-08T14:10:22.003Z,97115.54
2019-01-08T14:12:53.258Z,97113.20
2019-01-08T14:15:24.397Z,97106.23
2019-01-08T14:17:56.403Z,97104.39
2019-01-08T14:20:29.197Z,97101.22
2019-01-08T14:23:00.407Z,97104.99
2019-01-08T14:25:32.091Z,97095.47
2019-01-08T14:28:04.870Z,97089.86
2019-01-08T14:30:36.228Z,97092.30
2019-01-08T14:33:07.623Z,97086.57
2019-01-08T14:35:38.965Z,97083.50
2019-01-08T14:38:10.169Z,97087.91
2019-01-08T14:40:41.722Z,97082.89
2019-01-08T14:43:14.352Z,97082.89
2019-01-08T14:45:47.148Z,97080.52
2019-01-08T14:48:20.660Z,97074.37
2019-01-08T14:50:53.545Z,97073.27
2019-01-08T14:53:25.901Z,97071.30
2019-01-08T14:55:57.912Z,97063.31
2019-01-08T14:58:30.297Z,97055.42
2019-01-08T15:01:01.664Z,97062.89
2019-01-08T15:03:33.269Z,97060.33
2019-01-08T15:06:05.445Z,97056.84
2019-01-08T15:08:36.687Z,97057.11
2019-01-08T15:11:07.866Z,97062.25
2019-01-08T15:13:40.057Z,97057.65
2019-01-08T15:16:11.353Z,97047.00
2019-01-08T15:18:42.469Z,97051.09
2019-01-08T15:21:14.061Z,97040.03
2019-01-08T15:23:45.671Z,97042.60
2019-01-08T15:26:16.724Z,97032.78
2019-01-08T15:28:47.929Z,97034.31
2019-01-08T15:31:19.064Z,97030.31
2019-01-08T15:33:50.247Z,97030.44
2019-01-08T15:36:23.103Z,97021.20
2019-01-08T15:38:54.363Z,97022.13
2019-01-08T15:41:26.685Z,97020.88
2019-01-08T15:43:57.762Z,97023.73
2019-01-08T15:46:29.638Z,97006.50
2019-01-08T15:49:01.491Z,97002.52
2019-01-08T15:51:32.831Z,97006.58
2019-01-08T15:54:03.972Z,97000.23
2019-01-08T15:56:35.121Z,96997.85
2019-01-08T15:59:06.197Z,96997.23
2019-01-08T16:01:38.888Z,96996.41
2019-01-08T16:04:10.065Z,96990.16
2019-01-08T16:06:41.218Z,96981.42
2019-01-08T16:09:12.595Z,96985.73
2019-01-08T16:11:43.826Z,96978.42
2019-01-08T16:14:15.177Z,96973.41
2019-01-08T16:16:46.565Z,96960.78
2019-01-08T16:19:18.601Z,96965.21
2019-01-08T16:21:49.693Z,96967.95
2019-01-08T16:24:20.858Z,96969.16
2019-01-08T16:26:51.992Z,96964.30
2019-01-08T16:29:23.274Z,96959.94
2019-01-08T16:31:54.844Z,96963.74
2019-01-08T16:34:27.135Z,96959.27
2019-01-08T16:36:58.253Z,96960.28
2019-01-08T16:39:29.367Z,96962.72
2019-01-08T16:42:00.437Z,96953.48
2019-01-08T16:44:32.104Z,96951.72
2019-01-08T16:47:03.489Z,96949.98
2019-01-08T16:49:35.656Z,96950.67
2019-01-08T16:52:07.171Z,96941.48
2019-01-08T16:54:39.117Z,96945.70
2019-01-08T16:57:10.341Z,96935.67
2019-01-08T16:59:41.507Z,96930.97
2019-01-08T17:02:12.693Z,96931.53
2019-01-08T17:04:44.055Z,96929.15
2019-01-08T17:07:15.322Z,96930.94
2019-01-08T17:09:46.471Z,96925.61
2019-01-08T17:12:17.785Z,96920.80
2019-01-08T17:14:49.399Z,96916.48
2019-01-08T17:17:20.975Z,96915.38
2019-01-08T17:19:52.191Z,96910.16
2019-01-08T17:22:24.249Z,96909.08
2019-01-08T17:24:55.514Z,96906.42
2019-01-08T17:27:26.539Z,96899.67
2019-01-08T17:29:58.142Z,96900.59
2019-01-08T17:32:29.394Z,96900.59
2019-01-08T17:35:00.670Z,96897.50
2019-01-08T17:37:31.867Z,96892.97
2019-01-08T17:40:04.559Z,96895.35
2019-01-08T17:42:36.001Z,96887.45
2019-01-08T17:45:08.936Z,96885.53
2019-01-08T17:47:40.055Z,96894.11
2019-01-08T17:50:12.698Z,96889.89
2019-01-08T17:52:45.846Z,96879.16
2019-01-08T17:55:17.451Z,96877.91
2019-01-08T17:57:48.771Z,96866.90
2019-01-08T18:00:20.111Z,96867.58
2019-01-08T18:02:54.541Z,96861.75
2019-01-08T18:05:25.872Z,96859.37
2019-01-08T18:07:57.413Z,96855.69
2019-01-08T18:10:28.721Z,96854.78
2019-01-08T18:12:59.979Z,96854.87
2019-01-08T18:15:32.502Z,96840.45
2019-01-08T18:18:03.637Z,96842.89
2019-01-08T18:20:35.709Z,96835.21
2019-01-08T18:23:07.608Z,96834.28
2019-01-08T18:25:38.606Z,96839.18
2019-01-08T18:28:09.904Z,96830.45
2019-01-08T18:30:41.036Z,96821.45
2019-01-08T18:33:12.542Z,96816.20
2019-01-08T18:35:44.203Z,96816.80
2019-01-08T18:38:15.530Z,96817.62
2019-01-08T18:40:46.789Z,96809.75
2019-01-08T18:43:18.423Z,96812.30
2019-01-08T18:45:50.196Z,96805.72
2019-01-08T18:48:21.708Z,96804.39
2019-01-08T18:50:52.980Z,96803.88
2019-01-08T18:53:24.279Z,96800.56
2019-01-08T18:55:55.307Z,96798.72
2019-01-08T18:58:26.553Z,96791.04
2019-01-08T19:00:57.633Z,96786.42
2019-01-08T19:03:28.672Z,96782.74
2019-01-08T19:05:59.779Z,96773.11
2019-01-08T19:09:14.370Z,96785.72
2019-01-08T19:11:45.864Z,96770.76
2019-01-08T19:14:18.230Z,96760.85
2019-01-08T19:16:49.325Z,96761.67
2019-01-08T19:19:22.016Z,96758.19
2019-01-08T19:21:53.113Z,96754.70
2019-01-08T19:24:24.574Z,96762.77
2019-01-08T19:26:55.987Z,96759.88
2019-01-08T19:29:27.143Z,96761.91
2019-01-08T19:31:58.765Z,96764.06
2019-01-08T19:34:29.933Z,96764.57
2019-01-08T19:37:02.113Z,96760.53
2019-01-08T19:39:33.473Z,96754.46
2019-01-08T19:42:04.590Z,96753.28
2019-01-08T19:44:36.005Z,96745.98
2019-01-08T19:47:08.300Z,96743.91
2019-01-08T19:49:40.036Z,96738.58
2019-01-08T19:52:11.226Z,96736.30
2019-01-08T19:54:42.759Z,96732.97
2019-01-08T19:57:14.458Z,96732.53
2019-01-08T19:59:47.777Z,96727.12
2019-01-08T20:02:18.891Z,96728.84
2019-01-08T20:04:50.116Z,96722.33
2019-01-08T20:07:21.234Z,96722.48
2019-01-08T20:09:52.702Z,96717.45
2019-01-08T20:12:23.882Z,96715.96
2019-01-08T20:14:55.217Z,96708.27
2019-01-08T20:17:26.726Z,96706.50
2019-01-08T20:19:58.179Z,96703.91
2019-01-08T20:22:29.310Z,96703.91
2019-01-08T20:25:00.522Z,96696.59
2019-01-08T20:27:32.647Z,96695.54
2019-01-08T20:30:04.381Z,96688.67
2019-01-08T20:32:35.752Z,96691.54
2019-01-08T20:35:07.032Z,96694.34
2019-01-08T20:37:38.070Z,96689.56
2019-01-08T20:40:10.117Z,96687.41
2019-01-08T20:42:41.553Z,96685.63
2019-01-08T20:45:15.090Z,96685.02
2019-01-08T20:47:46.499Z,96686.86
2019-01-08T20:50:17.892Z,96675.48
2019-01-08T20:52:49.224Z,96679.48
2019-01-08T20:55:20.466Z,96679.23
2019-01-08T20:57:55.440Z,96681.02
2019-01-08T21:00:26.975Z,96682.20
2019-01-08T21:02:57.978Z,96681.59
2019-01-08T21:05:29.568Z,96673.66
2019-01-08T21:08:01.011Z,96676.63
2019-01-08T21:10:32.340Z,96671.81
2019-01-08T21:13:03.493Z,96663.81
2019-01-08T21:15:36.778Z,96674.64
2019-01-08T21:18:07.778Z,96669.21
2019-01-08T21:20:39.320Z,96669.21
2019-01-08T21:23:10.686Z,96678.41
2019-01-08T21:25:42.337Z,96672.88
2019-01-08T21:28:13.340Z,96674.03
2019-01-08T21:30:44.461Z,96671.61
2019-01-08T21:33:15.946Z,96681.08
2019-01-08T21:35:47.498Z,96663.24
2019-01-08T21:38:18.742Z,96663.41
2019-01-08T21:40:50.075Z,96667.31
2019-01-08T21:43:21.324Z,96662.02
2019-01-08T21:45:52.318Z,96656.38
2019-01-08T21:48:23.877Z,96650.59
2019-01-08T21:50:55.977Z,96654.32
2019-01-08T21:53:28.508Z,96653.20
2019-01-08T21:56:00.953Z,96649.58
2019-01-08T21:58:32.678Z,96645.00
2019-01-08T22:01:03.961Z,96645.13
2019-01-08T22:03:35.703Z,96642.77
2019-01-08T22:06:06.767Z,96642.53
2019-01-08T22:08:38.289Z,96639.22
2019-01-08T22:11:09.492Z,96641.20
2019-01-08T22:13:41.977Z,96638.16
2019-01-08T22:16:13.357Z,96638.47
2019-01-08T22:18:44.528Z,96642.77
2019-01-08T22:21:15.851Z,96637.20
2019-01-08T22:23:47.011Z,96633.20
2019-01-08T22:26:18.689Z,96632.31
2019-01-08T22:28:49.696Z,96629.21
2019-01-08T22:31:21.278Z,96637.58
2019-01-08T22:33:53.634Z,96628.05
2019-01-08T22:36:24.963Z,96632.48
2019-01-08T22:38:57.040Z,96626.09
2019-01-08T22:41:28.375Z,96631.73
2019-01-08T22:43:59.442Z,96629.45
2019-01-08T22:46:30.849Z,96632.70
2019-01-08T22:49:02.464Z,96631.23
2019-01-08T22:51:34.144Z,96627.43
2019-01-08T22:54:05.566Z,96626.27
2019-01-08T22:56:37.308Z,96625.08
2019-01-08T22:59:08.472Z,96624.05
2019-01-08T23:01:42.035Z,96628.62
2019-01-08T23:04:13.767Z,96631.08
2019-01-08T23:06:46.683Z,96621.31
2019-01-08T23:09:18.129Z,96617.89
2019-01-08T23:11:49.530Z,96617.83
2019-01-08T23:14:20.684Z,96621.38
2019-01-08T23:16:52.270Z,96623.02
2019-01-08T23:19:23.409Z,96613.77
2019-01-08T23:21:55.580Z,96615.03
2019-01-08T23:24:26.916Z,96614.14
2019-01-08T23:26:58.662Z,96606.14
2019-01-08T23:29:29.751Z,96616.11
2019-01-08T23:32:00.950Z,96611.73
2019-01-08T23:34:33.446Z,96613.89
2019-01-08T23:37:04.783Z,96604.06
2019-01-08T23:39:38.266Z,96600.20
2019-01-08T23:42:09.471Z,96602.86
2019-01-08T23:44:40.449Z,96606.95
2019-01-08T23:47:11.639Z,96609.52
2019-01-08T23:49:44.509Z,96605.76
2019-01-08T23:52:25.627Z,96603.47
2019-01-08T23:54:58.183Z,96603.41
2019-01-08T23:57:33.090Z,96600.30
